Bronson, Texas
Current Conditions -  °F | °C
As of 12:55 AM on Friday 28 Nov 2014 (Local Time) from KJAS Reporting Station
Clear Clear  
Wind Chill: 37°   Ceiling: Unl
Heat Index: 37°   Visibility: 10mi
Dew Point: 35°   Wind: 0mph
Humidity: 92%   Direction: NA
Pressure: 30.44"   Gusts: NA
Location:  31.34°N, 94.01°W
Report Text: KJAS 280655Z AUTO 00000KT 10SM CLR 03/02 A3044 RMK AO2 T00280016
Loading
Personal Weather Stations






























Interactive Weather Map New forecast layout! Learn more

10-Day Weather Forecast

Advertisements
Track Severe Weather on mobile